createdAt,value
2022-11-19T00:02:18.086Z,12.47
2022-11-19T00:04:46.089Z,11.90
2022-11-19T00:07:15.577Z,11.93
2022-11-19T00:09:43.805Z,12.17
2022-11-19T00:12:29.663Z,11.73
2022-11-19T00:14:57.414Z,12.07
2022-11-19T00:17:25.253Z,12.00
2022-11-19T00:19:53.175Z,11.90
2022-11-19T00:22:23.260Z,12.40
2022-11-19T00:24:51.208Z,12.37
2022-11-19T00:27:19.198Z,12.13
2022-11-19T00:29:47.096Z,13.50
2022-11-19T00:32:14.951Z,12.80
2022-11-19T00:34:42.815Z,13.13
2022-11-19T00:37:10.780Z,13.47
2022-11-19T00:39:40.308Z,14.40
2022-11-19T00:42:08.504Z,13.67
2022-11-19T00:44:37.742Z,14.07
2022-11-19T00:47:06.372Z,14.03
2022-11-19T00:49:34.540Z,14.57
2022-11-19T00:52:02.428Z,14.50
2022-11-19T00:54:30.368Z,14.80
2022-11-19T00:57:00.498Z,14.83
2022-11-19T00:59:28.498Z,15.07
2022-11-19T01:01:56.666Z,13.33
2022-11-19T01:04:25.169Z,14.17
2022-11-19T01:06:53.027Z,14.57
2022-11-19T01:09:21.152Z,13.90
2022-11-19T01:11:49.533Z,14.50
2022-11-19T01:14:18.972Z,15.00
2022-11-19T01:16:46.945Z,15.50
2022-11-19T01:19:17.161Z,15.30
2022-11-19T01:21:45.433Z,14.87
2022-11-19T01:24:14.674Z,14.73
2022-11-19T01:26:45.744Z,14.37
2022-11-19T01:29:14.368Z,15.17
2022-11-19T01:31:44.071Z,14.97
2022-11-19T01:34:11.824Z,15.10
2022-11-19T01:36:39.789Z,13.90
2022-11-19T01:39:07.762Z,15.37
2022-11-19T01:41:36.070Z,15.23
2022-11-19T01:44:05.634Z,15.90
2022-11-19T01:46:35.921Z,15.77
2022-11-19T01:49:08.487Z,15.73
2022-11-19T01:51:41.791Z,15.23
2022-11-19T01:54:13.689Z,14.63
2022-11-19T01:56:42.803Z,14.77
2022-11-19T01:59:14.114Z,15.63
2022-11-19T02:01:45.018Z,14.77
2022-11-19T02:04:16.435Z,15.43
2022-11-19T02:06:46.675Z,15.00
2022-11-19T02:09:14.879Z,15.37
2022-11-19T02:12:08.872Z,15.30
2022-11-19T02:14:54.521Z,15.37
2022-11-19T02:17:36.267Z,16.10
2022-11-19T02:20:43.131Z,16.87
2022-11-19T02:23:32.290Z,16.07
2022-11-19T02:26:31.066Z,16.03
2022-11-19T02:29:08.751Z,16.43
2022-11-19T02:31:43.877Z,15.90
2022-11-19T02:34:17.604Z,15.23
2022-11-19T02:36:49.948Z,16.43
2022-11-19T02:39:22.495Z,15.30
2022-11-19T02:41:57.345Z,15.50
2022-11-19T02:44:48.879Z,16.87
2022-11-19T02:47:21.694Z,16.77
2022-11-19T02:49:54.605Z,15.10
2022-11-19T02:52:23.965Z,15.63
2022-11-19T02:54:51.934Z,15.77
2022-11-19T02:57:19.813Z,13.97
2022-11-19T03:00:10.215Z,15.47
2022-11-19T03:03:02.286Z,15.13
2022-11-19T03:05:33.576Z,15.53
2022-11-19T03:08:01.856Z,15.07
2022-11-19T03:10:40.013Z,15.37
2022-11-19T03:13:27.387Z,15.70
2022-11-19T03:16:14.458Z,15.87
2022-11-19T03:18:49.659Z,15.57
2022-11-19T03:21:27.019Z,14.87
2022-11-19T03:23:58.912Z,15.30
2022-11-19T03:26:33.144Z,14.20
2022-11-19T03:29:05.456Z,14.10
2022-11-19T03:31:35.847Z,14.47
2022-11-19T03:34:11.837Z,15.43
2022-11-19T03:36:42.321Z,14.67
2022-11-19T03:39:13.386Z,15.30
2022-11-19T03:41:43.776Z,14.27
2022-11-19T03:44:15.952Z,14.47
2022-11-19T03:46:48.619Z,14.17
2022-11-19T03:49:23.051Z,15.07
2022-11-19T03:51:55.808Z,14.33
2022-11-19T03:54:24.143Z,14.77
2022-11-19T03:56:52.831Z,13.63
2022-11-19T03:59:22.517Z,13.50
2022-11-19T04:01:55.106Z,14.03
2022-11-19T04:04:39.724Z,14.63
2022-11-19T04:07:11.374Z,12.40
2022-11-19T04:09:40.130Z,12.90
2022-11-19T04:12:09.592Z,12.20
2022-11-19T04:14:37.576Z,12.57
2022-11-19T04:17:05.368Z,12.37
2022-11-19T04:19:34.608Z,11.30
2022-11-19T04:22:02.564Z,12.00
2022-11-19T04:24:30.574Z,11.03
2022-11-19T04:26:59.300Z,12.70
2022-11-19T04:29:27.213Z,11.93
2022-11-19T04:31:55.089Z,11.40
2022-11-19T04:34:23.448Z,12.00
2022-11-19T04:36:52.931Z,12.50
2022-11-19T04:39:21.321Z,11.03
2022-11-19T04:41:49.417Z,11.10
2022-11-19T04:44:17.541Z,10.93
2022-11-19T04:46:45.405Z,10.40
2022-11-19T04:49:13.585Z,10.13
2022-11-19T04:51:41.537Z,8.93
2022-11-19T04:54:10.952Z,10.13
2022-11-19T04:56:41.755Z,9.53
2022-11-19T04:59:09.922Z,8.87
2022-11-19T05:01:37.761Z,9.00
2022-11-19T05:04:06.164Z,8.90
2022-11-19T05:06:34.894Z,9.13
2022-11-19T05:09:02.916Z,8.27
2022-11-19T05:11:32.378Z,8.97
2022-11-19T05:14:00.160Z,9.13
2022-11-19T05:16:28.003Z,8.80
2022-11-19T05:18:55.804Z,7.90
2022-11-19T05:21:23.790Z,8.57
2022-11-19T05:23:51.681Z,8.47
2022-11-19T05:26:22.455Z,8.37
2022-11-19T05:28:51.612Z,7.90
2022-11-19T05:31:19.764Z,7.43
2022-11-19T05:33:47.802Z,7.80
2022-11-19T05:36:16.712Z,7.23
2022-11-19T05:38:44.520Z,7.07
2022-11-19T05:41:12.289Z,6.90
2022-11-19T05:43:40.256Z,6.87
2022-11-19T05:46:09.605Z,7.57
2022-11-19T05:48:37.370Z,6.87
2022-11-19T05:51:05.607Z,7.47
2022-11-19T05:53:33.801Z,7.93
2022-11-19T05:56:02.190Z,7.70
2022-11-19T05:58:30.055Z,7.57
2022-11-19T06:01:02.315Z,7.73
2022-11-19T06:03:31.946Z,7.90
2022-11-19T06:06:00.267Z,8.43
2022-11-19T06:08:28.331Z,8.47
2022-11-19T06:10:56.489Z,8.20
2022-11-19T06:13:24.670Z,7.17
2022-11-19T06:15:54.566Z,6.93
2022-11-19T06:18:22.302Z,7.17
2022-11-19T06:20:51.988Z,6.83
2022-11-19T06:23:19.995Z,7.03
2022-11-19T06:25:50.350Z,6.03
2022-11-19T06:28:18.310Z,6.50
2022-11-19T06:30:46.044Z,6.83
2022-11-19T06:33:14.816Z,6.60
2022-11-19T06:35:42.958Z,6.57
2022-11-19T06:38:14.129Z,6.50
2022-11-19T06:40:41.968Z,5.93
2022-11-19T06:43:10.947Z,5.80
2022-11-19T06:45:39.054Z,5.70
2022-11-19T06:48:07.087Z,6.17
2022-11-19T06:50:35.938Z,6.07
2022-11-19T06:53:03.841Z,5.87
2022-11-19T06:55:33.806Z,5.70
2022-11-19T06:58:03.636Z,5.97
2022-11-19T07:00:32.202Z,5.70
2022-11-19T07:03:00.155Z,5.77
2022-11-19T07:05:28.020Z,6.33
2022-11-19T07:08:01.547Z,5.47
2022-11-19T07:10:33.983Z,5.60
2022-11-19T07:13:02.074Z,5.87
2022-11-19T07:15:29.875Z,6.07
2022-11-19T07:17:57.978Z,5.53
2022-11-19T07:20:26.066Z,5.33
2022-11-19T07:22:58.913Z,5.50
2022-11-19T07:25:27.429Z,5.00
2022-11-19T07:27:58.303Z,5.37
2022-11-19T07:30:26.001Z,5.40
2022-11-19T07:32:54.839Z,5.50
2022-11-19T07:35:22.959Z,5.83
2022-11-19T07:37:50.685Z,5.70
2022-11-19T07:40:18.744Z,7.33
2022-11-19T07:42:51.761Z,5.30
2022-11-19T07:45:23.048Z,5.47
2022-11-19T07:47:50.898Z,5.37
2022-11-19T07:50:19.313Z,5.27
2022-11-19T07:52:48.500Z,4.80
2022-11-19T07:55:16.806Z,5.40
2022-11-19T07:57:46.382Z,5.73
2022-11-19T08:00:15.663Z,5.87
2022-11-19T08:02:44.999Z,5.40
2022-11-19T08:05:13.137Z,5.30
2022-11-19T08:07:41.161Z,5.40
2022-11-19T08:10:10.143Z,5.63
2022-11-19T08:12:38.167Z,4.83
2022-11-19T08:15:06.944Z,5.57
2022-11-19T08:17:52.459Z,5.20
2022-11-19T08:20:22.059Z,5.73
2022-11-19T08:22:50.054Z,5.10
2022-11-19T08:25:18.169Z,5.50
2022-11-19T08:27:46.221Z,5.20
2022-11-19T08:30:15.610Z,5.10
2022-11-19T08:32:44.284Z,6.30
2022-11-19T08:35:12.241Z,5.63
2022-11-19T08:37:41.564Z,5.23
2022-11-19T08:40:10.994Z,5.13
2022-11-19T08:42:56.218Z,5.17
2022-11-19T08:45:26.963Z,5.23
2022-11-19T08:47:57.325Z,6.07
2022-11-19T08:50:26.249Z,5.43
2022-11-19T08:52:57.222Z,5.10
2022-11-19T08:55:27.650Z,5.20
2022-11-19T08:58:00.957Z,5.47
2022-11-19T09:00:30.138Z,5.80
2022-11-19T09:02:59.820Z,5.30
2022-11-19T09:05:28.071Z,4.67
2022-11-19T09:07:57.633Z,5.50
2022-11-19T09:10:25.437Z,5.70
2022-11-19T09:12:53.758Z,5.77
2022-11-19T09:15:21.715Z,5.47
2022-11-19T09:17:49.702Z,5.27
2022-11-19T09:20:18.294Z,5.40
2022-11-19T09:22:46.201Z,5.63
2022-11-19T09:25:15.969Z,6.07
2022-11-19T09:27:43.958Z,5.63
2022-11-19T09:30:12.171Z,5.93
2022-11-19T09:32:40.506Z,5.50
2022-11-19T09:35:09.168Z,7.30
2022-11-19T09:37:38.209Z,7.40
2022-11-19T09:40:08.387Z,5.43
2022-11-19T09:42:46.123Z,5.90
2022-11-19T09:45:20.906Z,5.40
2022-11-19T09:48:13.527Z,7.17
2022-11-19T09:50:53.339Z,7.07
2022-11-19T09:53:23.185Z,6.30
2022-11-19T09:55:54.327Z,4.77
2022-11-19T09:58:27.487Z,4.13
2022-11-19T10:00:56.021Z,5.57
2022-11-19T10:03:32.799Z,4.60
2022-11-19T10:06:13.554Z,4.63
2022-11-19T10:08:54.814Z,4.87
2022-11-19T10:11:37.202Z,5.17
2022-11-19T10:14:17.804Z,4.43
2022-11-19T10:16:58.651Z,3.83
2022-11-19T10:19:43.870Z,4.53
2022-11-19T10:22:18.182Z,4.30
2022-11-19T10:24:51.427Z,4.33
2022-11-19T10:27:25.211Z,4.80
2022-11-19T10:29:57.881Z,4.33
2022-11-19T10:32:33.311Z,4.47
2022-11-19T10:35:07.622Z,3.73
2022-11-19T10:37:40.542Z,3.63
2022-11-19T10:40:13.874Z,3.57
2022-11-19T10:42:46.394Z,3.67
2022-11-19T10:45:19.755Z,3.20
2022-11-19T10:47:53.104Z,3.33
2022-11-19T10:50:23.616Z,3.00
2022-11-19T10:52:54.636Z,3.03
2022-11-19T10:55:28.411Z,3.20
2022-11-19T10:58:07.972Z,2.93
2022-11-19T11:00:39.381Z,3.20
2022-11-19T11:03:15.426Z,2.97
2022-11-19T11:05:57.247Z,3.07
2022-11-19T11:08:25.227Z,3.20
2022-11-19T11:10:54.210Z,2.80
2022-11-19T11:13:55.427Z,3.00
2022-11-19T11:16:27.392Z,2.93
2022-11-19T11:18:59.405Z,3.13
2022-11-19T11:21:34.134Z,3.10
2022-11-19T11:24:04.830Z,3.00
2022-11-19T11:26:34.782Z,2.90
2022-11-19T11:29:05.706Z,2.63
2022-11-19T11:31:37.667Z,3.07
2022-11-19T11:34:07.302Z,3.10
2022-11-19T11:36:37.236Z,3.03
2022-11-19T11:39:06.716Z,2.83
2022-11-19T11:42:05.342Z,2.57
2022-11-19T11:44:29.333Z,2.50
2022-11-19T11:47:02.112Z,2.63
2022-11-19T11:49:36.132Z,2.60
2022-11-19T11:52:08.399Z,3.10
2022-11-19T11:54:37.277Z,3.60
2022-11-19T11:57:19.682Z,2.30
2022-11-19T11:59:47.901Z,2.53
2022-11-19T12:02:30.711Z,2.70
2022-11-19T12:05:02.384Z,2.37
2022-11-19T12:07:56.389Z,2.37
2022-11-19T12:10:28.483Z,2.67
2022-11-19T12:13:09.682Z,2.57
2022-11-19T12:15:49.543Z,2.70
2022-11-19T12:18:30.062Z,2.40
2022-11-19T12:21:11.462Z,2.40
2022-11-19T12:23:59.712Z,2.30
2022-11-19T12:26:37.126Z,3.10
2022-11-19T12:29:15.895Z,2.40
2022-11-19T12:31:57.122Z,2.30
2022-11-19T12:34:45.181Z,2.40
2022-11-19T12:37:33.644Z,2.40
2022-11-19T12:40:11.572Z,2.70
2022-11-19T12:42:50.974Z,2.80
2022-11-19T12:45:25.827Z,2.70
2022-11-19T12:48:17.099Z,2.53
2022-11-19T12:50:54.182Z,2.60
2022-11-19T12:53:37.465Z,3.10
2022-11-19T12:56:14.755Z,2.77
2022-11-19T12:58:48.602Z,2.97
2022-11-19T13:01:21.391Z,2.67
2022-11-19T13:04:03.069Z,3.00
2022-11-19T13:06:39.342Z,2.70
2022-11-19T13:09:13.961Z,2.70
2022-11-19T13:11:46.652Z,2.80
2022-11-19T13:14:24.353Z,2.77
2022-11-19T13:16:55.642Z,2.60
2022-11-19T13:19:27.662Z,2.83
2022-11-19T13:22:00.458Z,2.50
2022-11-19T13:24:33.542Z,3.10
2022-11-19T13:27:05.138Z,2.80
2022-11-19T13:29:45.860Z,3.07
2022-11-19T13:32:24.497Z,2.90
2022-11-19T13:35:02.838Z,2.80
2022-11-19T13:37:42.202Z,2.30
2022-11-19T13:40:21.499Z,2.90
2022-11-19T13:46:18.418Z,3.27
2022-11-19T13:48:53.539Z,3.13
2022-11-19T13:51:27.973Z,2.93
2022-11-19T13:54:03.236Z,2.87
2022-11-19T13:56:44.255Z,3.33
2022-11-19T13:59:26.829Z,3.40
2022-11-19T14:02:15.970Z,3.63
2022-11-19T14:05:08.561Z,3.63
2022-11-19T14:07:55.788Z,3.50
2022-11-19T14:10:32.193Z,3.30
2022-11-19T14:13:30.961Z,3.47
2022-11-19T14:16:36.802Z,2.60
2022-11-19T14:19:24.108Z,2.87
2022-11-19T14:22:11.562Z,3.20
2022-11-19T14:25:16.570Z,2.50
2022-11-19T14:27:45.976Z,2.53
2022-11-19T14:30:18.133Z,2.50
2022-11-19T14:32:49.584Z,2.53
2022-11-19T14:35:40.107Z,2.60
2022-11-19T14:38:32.322Z,2.70
2022-11-19T14:41:04.941Z,2.60
2022-11-19T14:44:08.103Z,2.60
2022-11-19T14:46:36.873Z,2.80
2022-11-19T14:49:15.692Z,2.77
2022-11-19T14:51:43.751Z,3.03
2022-11-19T14:54:31.662Z,3.27
2022-11-19T14:57:18.257Z,3.50
2022-11-19T14:59:51.208Z,3.97
2022-11-19T15:02:25.324Z,5.00
2022-11-19T15:04:57.998Z,6.60
2022-11-19T15:07:56.095Z,4.07
2022-11-19T15:10:47.265Z,3.73
2022-11-19T15:13:26.195Z,5.00
2022-11-19T15:16:11.124Z,5.90
2022-11-19T15:19:09.039Z,4.20
2022-11-19T15:22:14.814Z,5.47
2022-11-19T15:24:56.939Z,5.60
2022-11-19T15:27:43.023Z,6.60
2022-11-19T15:30:18.260Z,7.53
2022-11-19T15:33:04.686Z,8.30
2022-11-19T15:35:39.290Z,6.60
2022-11-19T15:38:16.847Z,5.13
2022-11-19T15:40:49.721Z,3.80
2022-11-19T15:43:30.781Z,4.43
2022-11-19T15:46:06.462Z,4.33
2022-11-19T15:48:42.109Z,4.10
2022-11-19T15:51:14.890Z,5.00
2022-11-19T15:53:59.015Z,4.90
2022-11-19T15:56:28.893Z,5.83
2022-11-19T15:58:57.292Z,5.57
2022-11-19T16:01:25.668Z,4.93
2022-11-19T16:03:55.613Z,5.77
2022-11-19T16:06:25.916Z,5.07
2022-11-19T16:08:55.679Z,4.27
2022-11-19T16:11:43.384Z,4.07
2022-11-19T16:14:38.156Z,4.33
2022-11-19T16:17:30.983Z,5.43
2022-11-19T16:20:06.131Z,4.03
2022-11-19T16:22:37.398Z,4.60
2022-11-19T16:25:11.853Z,4.30
2022-11-19T16:27:45.349Z,5.20
2022-11-19T16:30:21.388Z,6.10
2022-11-19T16:32:49.445Z,6.40
2022-11-19T16:35:24.660Z,7.20
2022-11-19T16:37:54.549Z,8.43
2022-11-19T16:40:24.919Z,7.47
2022-11-19T16:42:54.407Z,7.93
2022-11-19T16:45:25.235Z,8.80
2022-11-19T16:47:56.027Z,9.57
2022-11-19T16:50:32.130Z,12.27
2022-11-19T16:53:02.311Z,14.87
2022-11-19T16:55:43.923Z,12.43
2022-11-19T16:58:17.605Z,11.93
2022-11-19T17:00:51.458Z,13.37
2022-11-19T17:03:32.242Z,13.93
2022-11-19T17:06:02.582Z,13.40
2022-11-19T17:08:32.060Z,14.50
2022-11-19T17:11:39.221Z,13.20
2022-11-19T17:14:14.586Z,14.13
2022-11-19T17:16:46.817Z,14.10
2022-11-19T17:19:17.187Z,16.33
2022-11-19T17:21:52.444Z,14.63
2022-11-19T17:24:26.513Z,14.43
2022-11-19T17:26:56.415Z,14.50
2022-11-19T17:29:25.211Z,14.30
2022-11-19T17:31:55.857Z,15.70
2022-11-19T17:34:35.327Z,12.57
2022-11-19T17:37:10.110Z,11.47
2022-11-19T17:39:39.434Z,10.40
2022-11-19T17:42:25.808Z,9.70
2022-11-19T17:44:54.854Z,10.17
2022-11-19T17:47:24.258Z,8.33
2022-11-19T17:49:52.933Z,9.73
2022-11-19T17:52:24.747Z,8.70
2022-11-19T17:54:56.683Z,8.13
2022-11-19T17:57:24.678Z,6.43
2022-11-19T17:59:53.279Z,6.33
2022-11-19T18:02:22.208Z,7.23
2022-11-19T18:04:50.323Z,6.33
2022-11-19T18:07:18.375Z,6.97
2022-11-19T18:09:48.869Z,6.97
2022-11-19T18:12:19.296Z,9.00
2022-11-19T18:14:47.481Z,8.57
2022-11-19T18:17:16.750Z,8.70
2022-11-19T18:19:44.674Z,8.47
2022-11-19T18:22:18.825Z,8.57
2022-11-19T18:24:49.999Z,8.67
2022-11-19T18:27:18.498Z,8.67
2022-11-19T18:29:46.767Z,7.87
2022-11-19T18:32:17.076Z,8.03
2022-11-19T18:34:45.460Z,8.60
2022-11-19T18:37:13.928Z,8.87
2022-11-19T18:39:41.854Z,9.13
2022-11-19T18:42:13.018Z,9.37
2022-11-19T18:44:41.903Z,8.43
2022-11-19T18:47:13.393Z,9.27
2022-11-19T18:49:41.766Z,10.77
2022-11-19T18:52:14.669Z,9.37
2022-11-19T18:54:43.531Z,11.23
2022-11-19T18:57:13.301Z,9.43
2022-11-19T18:59:42.288Z,9.13
2022-11-19T19:02:11.371Z,9.90
2022-11-19T19:04:39.261Z,9.93
2022-11-19T19:07:07.179Z,10.00
2022-11-19T19:09:35.241Z,10.57
2022-11-19T19:12:26.978Z,10.03
2022-11-19T19:14:57.556Z,10.43
2022-11-19T19:17:25.919Z,8.87
2022-11-19T19:19:53.756Z,8.73
2022-11-19T19:22:22.894Z,10.23
2022-11-19T19:24:56.725Z,8.93
2022-11-19T19:27:25.895Z,9.47
2022-11-19T19:29:53.791Z,9.80
2022-11-19T19:32:23.701Z,10.20
2022-11-19T19:34:51.459Z,10.90
2022-11-19T19:37:19.311Z,11.87
2022-11-19T19:39:47.201Z,12.67
2022-11-19T19:42:15.030Z,11.30
2022-11-19T19:44:43.235Z,11.83
2022-11-19T19:47:11.302Z,13.37
2022-11-19T19:49:42.676Z,11.90
2022-11-19T19:52:11.039Z,11.07
2022-11-19T19:54:41.187Z,10.77
2022-11-19T19:57:09.282Z,13.80
2022-11-19T19:59:37.355Z,11.27
2022-11-19T20:02:05.579Z,10.37
2022-11-19T20:04:33.403Z,10.93
2022-11-19T20:07:02.644Z,11.23
2022-11-19T20:09:32.216Z,10.53
2022-11-19T20:12:02.047Z,10.67
2022-11-19T20:14:29.972Z,9.20
2022-11-19T20:16:57.737Z,10.03
2022-11-19T20:19:26.098Z,10.53
2022-11-19T20:21:54.669Z,9.97
2022-11-19T20:24:24.274Z,11.37
2022-11-19T20:26:52.707Z,9.83
2022-11-19T20:29:22.121Z,11.47
2022-11-19T20:31:51.758Z,10.23
2022-11-19T20:34:20.888Z,12.57
2022-11-19T20:36:50.470Z,13.17
2022-11-19T20:39:19.202Z,11.10
2022-11-19T20:42:11.877Z,11.37
2022-11-19T20:44:39.693Z,11.37
2022-11-19T20:47:08.920Z,10.83
2022-11-19T20:49:39.421Z,11.83
2022-11-19T20:52:07.736Z,11.90
2022-11-19T20:54:36.394Z,11.17
2022-11-19T20:57:06.475Z,10.43
2022-11-19T20:59:34.343Z,12.87
2022-11-19T21:02:02.605Z,11.07
2022-11-19T21:04:36.210Z,10.37
2022-11-19T21:07:05.396Z,14.23
2022-11-19T21:09:33.843Z,10.20
2022-11-19T21:12:03.104Z,10.73
2022-11-19T21:14:32.606Z,10.43
2022-11-19T21:17:00.679Z,14.97
2022-11-19T21:19:28.534Z,14.77
2022-11-19T21:21:56.439Z,12.27
2022-11-19T21:24:24.847Z,11.27
2022-11-19T21:26:52.674Z,11.43
2022-11-19T21:29:20.694Z,11.87
2022-11-19T21:31:51.344Z,12.90
2022-11-19T21:34:21.558Z,11.60
2022-11-19T21:36:50.458Z,11.77
2022-11-19T21:39:19.948Z,12.40
2022-11-19T21:41:49.766Z,11.50
2022-11-19T21:44:21.350Z,11.50
2022-11-19T21:46:52.288Z,10.53
2022-11-19T21:49:20.911Z,10.17
2022-11-19T21:51:49.066Z,11.03
2022-11-19T21:54:16.857Z,10.13
2022-11-19T21:56:44.609Z,10.00
2022-11-19T21:59:12.496Z,11.40
2022-11-19T22:01:42.406Z,10.27
2022-11-19T22:04:13.855Z,12.00
2022-11-19T22:06:42.882Z,10.70
2022-11-19T22:09:11.453Z,10.77
2022-11-19T22:11:40.223Z,10.47
2022-11-19T22:14:09.727Z,11.00
2022-11-19T22:16:39.284Z,11.10
2022-11-19T22:19:08.032Z,12.27
2022-11-19T22:21:37.723Z,11.00
2022-11-19T22:24:07.533Z,11.23
2022-11-19T22:26:35.429Z,12.93
2022-11-19T22:29:04.352Z,11.00
2022-11-19T22:31:32.336Z,12.53
2022-11-19T22:34:00.684Z,12.30
2022-11-19T22:36:33.211Z,11.70
2022-11-19T22:39:03.342Z,14.10
2022-11-19T22:41:31.682Z,15.63
2022-11-19T22:43:59.984Z,11.40
2022-11-19T22:46:28.681Z,12.40
2022-11-19T22:48:56.577Z,10.27
2022-11-19T22:51:26.634Z,11.17
2022-11-19T22:53:55.824Z,12.63
2022-11-19T22:56:27.469Z,11.70
2022-11-19T22:58:55.550Z,11.47
2022-11-19T23:01:26.913Z,11.60
2022-11-19T23:03:55.614Z,12.53
2022-11-19T23:06:24.331Z,11.33
2022-11-19T23:08:52.646Z,10.90
2022-11-19T23:11:42.360Z,11.10
2022-11-19T23:14:12.888Z,10.63
2022-11-19T23:16:42.209Z,11.10
2022-11-19T23:19:11.307Z,11.77
2022-11-19T23:21:40.080Z,9.70
2022-11-19T23:24:08.498Z,8.77
2022-11-19T23:26:36.377Z,12.27
2022-11-19T23:29:04.971Z,10.90
2022-11-19T23:31:36.962Z,10.53
2022-11-19T23:34:05.785Z,10.80
2022-11-19T23:36:36.394Z,10.50
2022-11-19T23:39:06.174Z,11.63
2022-11-19T23:41:35.412Z,12.97
2022-11-19T23:44:03.846Z,11.13
2022-11-19T23:46:35.661Z,11.93
2022-11-19T23:49:05.342Z,10.47
2022-11-19T23:51:34.882Z,11.67
2022-11-19T23:54:03.411Z,11.27
2022-11-19T23:56:32.641Z,10.23
2022-11-19T23:59:02.759Z,10.00
